Time;durP1;ratioP1;P1;durP2;ratioP2;P2;SDS_P1;SDS_P2;PMS_P1;PMS_P2;Temp;Humidity;BMP_temperature;BMP_pressure;BME280_temperature;BME280_humidity;BME280_pressure;Samples;Min_cycle;Max_cycle;Signal;HPM_P1;HPM_P2
2024/01/06 00:00:24;;;;;;;10.27;9.07;;;;;;;;;;2612391;39;20846;-76
2024/01/06 00:05:53;;;;;;;11.60;8.13;;;;;;;;;;2612479;54;20393;-75
2024/01/06 00:11:23;;;;;;;14.10;9.30;;;;;;;;;;2613271;39;20789;-78
2024/01/06 00:16:55;;;;;;;11.13;9.10;;;;;;;;;;2612167;54;20393;-78
2024/01/06 00:22:25;;;;;;;15.37;9.70;;;;;;;;;;2613498;54;20378;-79
2024/01/06 00:28:00;;;;;;;10.93;9.20;;;;;;;;;;2613854;39;21080;-78
2024/01/06 00:33:29;;;;;;;10.33;8.40;;;;;;;;;;2612612;54;20389;-78
2024/01/06 00:38:59;;;;;;;10.57;8.13;;;;;;;;;;2613281;54;20894;-79
2024/01/06 00:44:29;;;;;;;9.13;7.73;;;;;;;;;;2613695;54;20445;-78
2024/01/06 00:49:58;;;;;;;12.50;9.73;;;;;;;;;;2613560;54;20362;-77
2024/01/06 00:55:28;;;;;;;13.33;8.57;;;;;;;;;;2612764;54;20888;-78
2024/01/06 01:00:58;;;;;;;12.50;8.33;;;;;;;;;;2613226;54;20421;-77
2024/01/06 01:06:30;;;;;;;14.47;9.77;;;;;;;;;;2613417;39;20753;-79
2024/01/06 01:12:02;;;;;;;11.90;8.80;;;;;;;;;;2613485;54;20355;-78
2024/01/06 01:17:35;;;;;;;14.57;10.07;;;;;;;;;;2612239;54;20359;-76
2024/01/06 01:23:04;;;;;;;13.80;10.23;;;;;;;;;;2613680;54;20354;-79
2024/01/06 01:28:34;;;;;;;15.40;10.40;;;;;;;;;;2613151;54;20365;-77
2024/01/06 01:39:57;;;;;;;14.03;10.27;;;;;;;;;;2613173;54;20390;-76
2024/01/06 01:51:23;;;;;;;13.67;10.80;;;;;;;;;;2610737;54;20395;-77
2024/01/06 01:56:53;;;;;;;13.00;9.70;;;;;;;;;;2612205;31;20888;-77
2024/01/06 02:02:23;;;;;;;18.20;12.97;;;;;;;;;;2610389;54;20374;-77
2024/01/06 02:07:56;;;;;;;17.00;12.50;;;;;;;;;;2610521;54;20415;-75
2024/01/06 02:19:24;;;;;;;19.83;13.13;;;;;;;;;;2611313;54;20393;-75
2024/01/06 02:24:56;;;;;;;17.00;13.30;;;;;;;;;;2611994;54;20468;-76
2024/01/06 02:30:28;;;;;;;17.23;11.90;;;;;;;;;;2610798;54;20362;-75
2024/01/06 02:35:58;;;;;;;18.13;13.63;;;;;;;;;;2611432;54;20464;-75
2024/01/06 02:41:29;;;;;;;20.83;15.23;;;;;;;;;;2612287;54;20362;-76
2024/01/06 02:46:59;;;;;;;22.80;14.17;;;;;;;;;;2612135;54;20523;-75
2024/01/06 02:52:29;;;;;;;23.17;14.80;;;;;;;;;;2613398;54;20435;-75
2024/01/06 02:57:58;;;;;;;23.53;17.77;;;;;;;;;;2612935;54;20934;-74
2024/01/06 03:03:28;;;;;;;20.27;14.60;;;;;;;;;;2612729;54;20456;-75
2024/01/06 03:08:58;;;;;;;20.17;13.90;;;;;;;;;;2613027;54;20353;-74
2024/01/06 03:14:27;;;;;;;20.33;14.53;;;;;;;;;;2613155;54;20354;-75
2024/01/06 03:19:57;;;;;;;17.07;12.60;;;;;;;;;;2613290;54;20367;-76
2024/01/06 03:25:27;;;;;;;17.27;13.00;;;;;;;;;;2613464;54;20387;-75
2024/01/06 03:30:59;;;;;;;19.60;13.27;;;;;;;;;;2612822;54;20406;-75
2024/01/06 03:34:00;;;;;;;22.43;13.50;;;;;;;;;;2613006;54;20411;-75
2024/01/06 03:36:26;;;;;;;19.80;13.47;;;;;;;;;;2612874;39;20857;-75
2024/01/06 03:41:56;;;;;;;17.17;12.70;;;;;;;;;;2612870;54;20384;-74
2024/01/06 03:47:25;;;;;;;15.07;10.60;;;;;;;;;;2612442;54;20358;-76
2024/01/06 03:52:55;;;;;;;16.63;11.20;;;;;;;;;;2612567;54;20367;-75
2024/01/06 03:58:25;;;;;;;15.13;9.90;;;;;;;;;;2612682;54;20373;-77
2024/01/06 04:09:51;;;;;;;16.30;9.43;;;;;;;;;;2612608;54;20348;-76
2024/01/06 04:15:21;;;;;;;13.80;8.97;;;;;;;;;;2612245;54;20460;-75
2024/01/06 04:20:53;;;;;;;15.00;9.67;;;;;;;;;;2613128;54;20378;-76
2024/01/06 04:26:25;;;;;;;13.67;8.30;;;;;;;;;;2612329;54;20366;-75
2024/01/06 04:31:55;;;;;;;12.80;9.40;;;;;;;;;;2612173;54;20402;-76
2024/01/06 04:37:27;;;;;;;11.90;8.27;;;;;;;;;;2612497;54;20407;-76
2024/01/06 04:42:57;;;;;;;16.50;10.30;;;;;;;;;;2611815;47;20369;-75
2024/01/06 04:48:26;;;;;;;16.97;9.80;;;;;;;;;;2612181;54;20489;-75
2024/01/06 04:53:58;;;;;;;16.50;10.00;;;;;;;;;;2611815;54;20393;-75
2024/01/06 04:59:31;;;;;;;13.53;8.30;;;;;;;;;;2612378;54;20405;-75
2024/01/06 05:05:01;;;;;;;14.43;9.17;;;;;;;;;;2612531;54;20495;-75
2024/01/06 05:10:33;;;;;;;14.80;8.77;;;;;;;;;;2613135;39;20785;-73
2024/01/06 05:16:05;;;;;;;14.40;8.10;;;;;;;;;;2612250;54;20949;-75
2024/01/06 05:21:38;;;;;;;13.00;8.10;;;;;;;;;;2613280;39;20736;-75
2024/01/06 05:27:07;;;;;;;14.73;9.00;;;;;;;;;;2613216;54;20385;-75
2024/01/06 05:32:38;;;;;;;13.30;9.60;;;;;;;;;;2612993;54;20385;-75
2024/01/06 05:41:46;;;;;;;15.17;9.00;;;;;;;;;;2612879;54;20408;-76
2024/01/06 05:47:16;;;;;;;18.63;10.80;;;;;;;;;;2612918;54;20390;-75
2024/01/06 05:52:48;;;;;;;15.00;9.87;;;;;;;;;;2613228;54;20388;-75
2024/01/06 05:58:18;;;;;;;15.00;8.90;;;;;;;;;;2611321;54;20348;-75
2024/01/06 06:03:50;;;;;;;13.67;8.17;;;;;;;;;;2612103;54;20390;-74
2024/01/06 06:09:21;;;;;;;15.70;9.20;;;;;;;;;;2611877;54;20348;-76
2024/01/06 06:14:53;;;;;;;11.03;8.23;;;;;;;;;;2612147;54;20404;-75
2024/01/06 06:20:26;;;;;;;13.67;8.30;;;;;;;;;;2613266;39;20955;-76
2024/01/06 06:25:56;;;;;;;9.50;7.30;;;;;;;;;;2612761;54;20738;-75
2024/01/06 06:31:30;;;;;;;9.73;7.53;;;;;;;;;;2612393;54;20381;-75
2024/01/06 06:37:00;;;;;;;13.20;8.30;;;;;;;;;;2612774;31;20799;-74
2024/01/06 06:42:30;;;;;;;12.60;8.73;;;;;;;;;;2611804;54;20381;-77
2024/01/06 06:47:59;;;;;;;10.83;8.07;;;;;;;;;;2612339;54;20946;-76
2024/01/06 06:53:29;;;;;;;11.67;7.90;;;;;;;;;;2612840;54;20392;-77
2024/01/06 06:58:59;;;;;;;12.40;8.37;;;;;;;;;;2612523;54;20436;-77
2024/01/06 07:04:29;;;;;;;14.20;7.50;;;;;;;;;;2612376;54;20395;-77
2024/01/06 07:10:04;;;;;;;12.13;6.20;;;;;;;;;;2612234;54;25429;-77
2024/01/06 07:15:34;;;;;;;12.87;8.70;;;;;;;;;;2611975;54;20406;-78
2024/01/06 07:21:07;;;;;;;15.37;9.20;;;;;;;;;;2612765;54;20484;-76
2024/01/06 07:26:37;;;;;;;12.73;9.00;;;;;;;;;;2612565;54;20367;-76
2024/01/06 07:32:07;;;;;;;18.90;9.50;;;;;;;;;;2613193;54;20916;-82
2024/01/06 07:43:47;;;;;;;19.43;10.67;;;;;;;;;;2612188;54;21868;-76
2024/01/06 07:49:19;;;;;;;20.40;10.67;;;;;;;;;;2612658;54;20355;-77
2024/01/06 07:54:51;;;;;;;21.33;12.90;;;;;;;;;;2613382;54;20415;-75
2024/01/06 08:00:21;;;;;;;28.80;14.60;;;;;;;;;;2613645;54;20963;-76
2024/01/06 08:05:52;;;;;;;21.93;11.63;;;;;;;;;;2612926;39;20597;-75
2024/01/06 08:11:22;;;;;;;24.17;15.20;;;;;;;;;;2612335;54;20383;-77
2024/01/06 08:16:54;;;;;;;35.57;19.57;;;;;;;;;;2609609;54;20367;-75
2024/01/06 08:22:31;;;;;;;29.73;19.87;;;;;;;;;;2610332;54;20409;-75
2024/01/06 08:28:04;;;;;;;41.93;13.80;;;;;;;;;;2611617;39;20561;-74
2024/01/06 08:33:36;;;;;;;25.97;14.20;;;;;;;;;;2613043;39;20929;-74
2024/01/06 08:42:49;;;;;;;25.47;14.27;;;;;;;;;;2609729;54;20389;-76
2024/01/06 08:48:19;;;;;;;19.00;11.90;;;;;;;;;;2613971;54;20505;-74
2024/01/06 08:53:49;;;;;;;18.93;10.27;;;;;;;;;;2615976;54;20395;-73
2024/01/06 08:59:20;;;;;;;21.43;11.20;;;;;;;;;;2615437;39;20739;-77
2024/01/06 09:04:49;;;;;;;15.87;10.10;;;;;;;;;;2612301;54;20406;-73
2024/01/06 09:10:19;;;;;;;18.03;8.70;;;;;;;;;;2615384;54;20355;-77
2024/01/06 09:15:49;;;;;;;14.07;8.67;;;;;;;;;;2614898;54;20933;-77
2024/01/06 09:21:19;;;;;;;18.53;10.00;;;;;;;;;;2615132;54;20390;-77
2024/01/06 09:26:52;;;;;;;17.47;10.33;;;;;;;;;;2612064;54;20390;-77
2024/01/06 09:32:22;;;;;;;17.33;9.93;;;;;;;;;;2612145;54;21050;-77
2024/01/06 09:37:55;;;;;;;18.93;13.13;;;;;;;;;;2610563;54;20479;-76
2024/01/06 09:43:26;;;;;;;15.63;8.60;;;;;;;;;;2610325;54;20391;-76
2024/01/06 09:48:57;;;;;;;16.47;10.40;;;;;;;;;;2610060;54;20399;-76
2024/01/06 09:54:33;;;;;;;18.53;9.37;;;;;;;;;;2610078;54;20375;-76
2024/01/06 10:00:05;;;;;;;16.23;9.93;;;;;;;;;;2611679;54;20423;-77
2024/01/06 10:05:36;;;;;;;19.30;9.93;;;;;;;;;;2611497;54;20408;-76
2024/01/06 10:11:05;;;;;;;24.50;10.43;;;;;;;;;;2611493;39;20794;-78
2024/01/06 10:16:35;;;;;;;23.40;12.27;;;;;;;;;;2610416;54;21193;-77
2024/01/06 10:22:06;;;;;;;18.17;9.50;;;;;;;;;;2611467;39;20589;-77
2024/01/06 10:27:40;;;;;;;20.27;12.17;;;;;;;;;;2611564;54;20973;-76
2024/01/06 10:33:10;;;;;;;23.20;13.30;;;;;;;;;;2611629;54;21085;-76
2024/01/06 10:35:55;;;;;;;28.10;14.40;;;;;;;;;;2610962;54;20412;-76
2024/01/06 10:38:21;;;;;;;19.90;12.60;;;;;;;;;;2609831;54;20445;-75
2024/01/06 10:40:57;;;;;;;17.97;10.43;;;;;;;;;;2610826;54;20438;-77
2024/01/06 10:43:26;;;;;;;14.73;9.83;;;;;;;;;;2610381;54;20467;-76
2024/01/06 10:48:56;;;;;;;11.67;6.20;;;;;;;;;;2611948;39;21094;-75
2024/01/06 10:54:28;;;;;;;17.20;10.23;;;;;;;;;;2609266;54;20411;-75
2024/01/06 10:59:59;;;;;;;21.40;13.23;;;;;;;;;;2613724;54;20426;-77
2024/01/06 11:05:28;;;;;;;24.67;15.80;;;;;;;;;;2607189;54;20394;-76
2024/01/06 11:10:58;;;;;;;28.50;13.03;;;;;;;;;;2609249;39;20777;-75
2024/01/06 11:16:38;;;;;;;34.27;17.90;;;;;;;;;;2608947;39;20830;-77
2024/01/06 11:22:31;;;;;;;25.40;15.53;;;;;;;;;;2609464;54;20375;-76
2024/01/06 11:33:57;;;;;;;28.37;16.10;;;;;;;;;;2606504;54;20407;-76
2024/01/06 11:43:08;;;;;;;24.57;14.60;;;;;;;;;;2610325;39;21022;-74
2024/01/06 11:48:38;;;;;;;31.23;14.93;;;;;;;;;;2612297;39;20732;-75
2024/01/06 11:54:09;;;;;;;25.53;15.47;;;;;;;;;;2609220;39;20763;-76
2024/01/06 11:59:39;;;;;;;23.03;13.67;;;;;;;;;;2609849;54;20916;-75
2024/01/06 12:05:16;;;;;;;25.93;15.77;;;;;;;;;;2613344;54;20355;-76
2024/01/06 12:10:45;;;;;;;20.67;11.57;;;;;;;;;;2608870;54;20447;-77
2024/01/06 12:16:15;;;;;;;24.13;13.13;;;;;;;;;;2608594;54;20415;-75
2024/01/06 12:21:45;;;;;;;24.60;11.70;;;;;;;;;;2610498;54;20345;-76
2024/01/06 12:27:14;;;;;;;26.47;13.80;;;;;;;;;;2611693;54;20394;-76
2024/01/06 12:32:45;;;;;;;21.90;13.93;;;;;;;;;;2611593;54;20358;-75
2024/01/06 12:38:16;;;;;;;22.50;10.97;;;;;;;;;;2612039;54;20343;-75
2024/01/06 12:43:46;;;;;;;30.30;15.60;;;;;;;;;;2612677;39;20774;-74
2024/01/06 12:49:16;;;;;;;26.93;15.07;;;;;;;;;;2612359;39;20757;-76
2024/01/06 12:54:45;;;;;;;34.87;17.50;;;;;;;;;;2611289;54;20383;-75
2024/01/06 13:00:17;;;;;;;23.67;12.70;;;;;;;;;;2612224;54;20358;-76
2024/01/06 13:05:47;;;;;;;27.00;13.37;;;;;;;;;;2611790;54;20411;-76
2024/01/06 13:11:18;;;;;;;29.07;14.53;;;;;;;;;;2614655;54;20447;-76
2024/01/06 13:14:03;;;;;;;28.63;15.83;;;;;;;;;;2613578;54;20374;-75
2024/01/06 13:16:29;;;;;;;22.47;14.50;;;;;;;;;;2612540;47;20418;-75
2024/01/06 13:21:59;;;;;;;28.87;13.93;;;;;;;;;;2614857;54;20370;-75
2024/01/06 13:27:28;;;;;;;21.73;12.20;;;;;;;;;;2614064;46;20381;-75
2024/01/06 13:32:59;;;;;;;24.53;13.10;;;;;;;;;;2615304;54;20383;-75
2024/01/06 13:38:29;;;;;;;21.30;12.13;;;;;;;;;;2612184;39;20697;-75
2024/01/06 13:43:58;;;;;;;21.00;13.77;;;;;;;;;;2612322;54;20419;-76
2024/01/06 13:49:28;;;;;;;25.27;13.63;;;;;;;;;;2611616;39;20733;-75
2024/01/06 13:54:58;;;;;;;20.80;13.70;;;;;;;;;;2611562;54;20390;-75
2024/01/06 14:00:28;;;;;;;21.87;12.70;;;;;;;;;;2611676;54;21419;-74
2024/01/06 14:05:57;;;;;;;26.33;13.67;;;;;;;;;;2612406;54;20871;-75
2024/01/06 14:11:27;;;;;;;25.67;14.13;;;;;;;;;;2612869;54;20359;-75
2024/01/06 14:16:57;;;;;;;20.67;12.73;;;;;;;;;;2612928;54;20371;-75
2024/01/06 14:22:26;;;;;;;26.07;14.67;;;;;;;;;;2612652;54;20481;-74
2024/01/06 14:27:56;;;;;;;33.93;14.53;;;;;;;;;;2610843;54;20403;-74
2024/01/06 14:33:27;;;;;;;22.83;13.00;;;;;;;;;;2613020;54;20371;-75
2024/01/06 14:45:08;;;;;;;26.27;14.80;;;;;;;;;;2615124;54;20351;-75
2024/01/06 14:50:37;;;;;;;20.00;13.20;;;;;;;;;;2613385;54;20339;-76
2024/01/06 14:56:07;;;;;;;26.07;12.93;;;;;;;;;;2615193;39;20746;-75
2024/01/06 15:01:38;;;;;;;25.00;13.10;;;;;;;;;;2610215;39;20844;-75
2024/01/06 15:07:07;;;;;;;21.13;12.73;;;;;;;;;;2613351;54;20377;-76
2024/01/06 15:12:37;;;;;;;19.70;12.20;;;;;;;;;;2615347;54;20439;-76
2024/01/06 15:18:08;;;;;;;22.27;12.00;;;;;;;;;;2615015;54;20371;-76
2024/01/06 15:23:38;;;;;;;30.30;12.47;;;;;;;;;;2614125;54;20387;-75
2024/01/06 15:29:07;;;;;;;22.20;10.50;;;;;;;;;;2614420;54;20407;-77
2024/01/06 15:34:37;;;;;;;21.80;12.90;;;;;;;;;;2614909;54;20502;-76
2024/01/06 15:46:15;;;;;;;25.50;15.30;;;;;;;;;;2614746;54;20969;-77
2024/01/06 15:51:45;;;;;;;27.00;13.90;;;;;;;;;;2613694;54;20402;-76
2024/01/06 15:57:16;;;;;;;26.00;15.17;;;;;;;;;;2615369;54;20373;-77
2024/01/06 16:02:46;;;;;;;28.00;15.50;;;;;;;;;;2613563;54;20383;-75
2024/01/06 16:08:15;;;;;;;24.50;15.23;;;;;;;;;;2614476;54;20531;-76
2024/01/06 16:13:46;;;;;;;36.10;21.57;;;;;;;;;;2613943;54;20527;-77
2024/01/06 16:19:15;;;;;;;33.93;21.30;;;;;;;;;;2610559;54;20362;-76
2024/01/06 16:24:45;;;;;;;31.37;17.50;;;;;;;;;;2614023;54;20383;-78
2024/01/06 16:30:15;;;;;;;32.73;18.07;;;;;;;;;;2613735;54;20377;-76
2024/01/06 16:35:46;;;;;;;20.73;13.10;;;;;;;;;;2611494;54;20406;-77
2024/01/06 16:44:54;;;;;;;21.20;13.40;;;;;;;;;;2610847;54;20533;-77
2024/01/06 16:50:23;;;;;;;22.00;14.17;;;;;;;;;;2609793;46;20397;-77
2024/01/06 16:55:53;;;;;;;25.80;14.70;;;;;;;;;;2611112;54;21687;-77
2024/01/06 17:01:23;;;;;;;30.27;15.97;;;;;;;;;;2612325;54;20347;-77
2024/01/06 17:06:53;;;;;;;25.60;13.60;;;;;;;;;;2613364;54;20342;-76
2024/01/06 17:12:25;;;;;;;17.33;10.87;;;;;;;;;;2613320;54;20911;-77
2024/01/06 17:17:55;;;;;;;22.77;12.90;;;;;;;;;;2611575;54;20370;-75
2024/01/06 17:23:25;;;;;;;19.50;13.30;;;;;;;;;;2611733;54;20374;-77
2024/01/06 17:28:54;;;;;;;18.03;11.80;;;;;;;;;;2612891;54;20335;-76
2024/01/06 17:34:24;;;;;;;20.10;12.07;;;;;;;;;;2613483;54;20498;-75
2024/01/06 17:39:54;;;;;;;20.13;12.13;;;;;;;;;;2613651;54;20383;-73
2024/01/06 17:45:43;;;;;;;16.13;11.67;;;;;;;;;;2614492;54;20454;-74
2024/01/06 17:51:12;;;;;;;20.73;12.00;;;;;;;;;;2612671;54;20390;-76
2024/01/06 17:56:42;;;;;;;23.30;13.47;;;;;;;;;;2613072;54;20375;-75
2024/01/06 18:02:11;;;;;;;19.80;12.23;;;;;;;;;;2611734;54;20387;-76
2024/01/06 18:07:41;;;;;;;23.13;13.50;;;;;;;;;;2612548;54;20387;-76
2024/01/06 18:13:11;;;;;;;22.30;14.77;;;;;;;;;;2611164;54;20883;-74
2024/01/06 18:18:41;;;;;;;18.97;12.77;;;;;;;;;;2614078;54;20501;-77
2024/01/06 18:24:11;;;;;;;22.80;14.43;;;;;;;;;;2611898;54;20961;-75
2024/01/06 18:29:40;;;;;;;25.50;14.73;;;;;;;;;;2612387;54;20395;-76
2024/01/06 18:35:10;;;;;;;20.47;13.83;;;;;;;;;;2611755;54;21043;-77
2024/01/06 18:40:39;;;;;;;22.07;14.00;;;;;;;;;;2611613;54;20376;-77
2024/01/06 18:55:30;;;;;;;21.30;14.03;;;;;;;;;;2612645;54;20351;-77
2024/01/06 19:00:59;;;;;;;28.90;15.20;;;;;;;;;;2610030;39;21076;-76
2024/01/06 19:06:29;;;;;;;32.87;16.67;;;;;;;;;;2610317;54;20347;-78
2024/01/06 19:11:59;;;;;;;33.53;16.20;;;;;;;;;;2610233;54;21014;-77
2024/01/06 19:14:45;;;;;;;27.33;15.90;;;;;;;;;;2610070;54;20774;-76
2024/01/06 19:17:12;;;;;;;27.67;15.30;;;;;;;;;;2610319;39;20915;-76
2024/01/06 19:22:42;;;;;;;24.17;14.83;;;;;;;;;;2612784;54;20959;-76
2024/01/06 19:28:11;;;;;;;23.93;14.60;;;;;;;;;;2609611;54;20390;-76
2024/01/06 19:33:41;;;;;;;22.70;14.50;;;;;;;;;;2614866;54;20387;-78
2024/01/06 19:39:11;;;;;;;26.87;15.30;;;;;;;;;;2612492;54;20486;-76
2024/01/06 19:44:41;;;;;;;24.37;15.30;;;;;;;;;;2613573;39;21017;-76
2024/01/06 19:50:11;;;;;;;25.77;15.80;;;;;;;;;;2612566;54;20585;-76
2024/01/06 19:55:43;;;;;;;30.47;15.77;;;;;;;;;;2611430;54;21024;-76
2024/01/06 20:01:13;;;;;;;25.13;15.13;;;;;;;;;;2610508;54;20418;-75
2024/01/06 20:06:44;;;;;;;28.80;16.07;;;;;;;;;;2610016;54;21976;-76
2024/01/06 20:12:14;;;;;;;24.53;15.00;;;;;;;;;;2610260;54;20390;-75
2024/01/06 20:17:43;;;;;;;27.40;15.63;;;;;;;;;;2610338;54;20391;-74
2024/01/06 20:23:13;;;;;;;21.50;14.07;;;;;;;;;;2612459;54;20394;-75
2024/01/06 20:28:45;;;;;;;24.60;15.60;;;;;;;;;;2613479;54;20565;-76
2024/01/06 20:34:14;;;;;;;32.43;18.83;;;;;;;;;;2610281;54;20387;-76
2024/01/06 20:39:44;;;;;;;25.50;15.97;;;;;;;;;;2614337;54;20386;-74
2024/01/06 20:45:15;;;;;;;29.50;16.97;;;;;;;;;;2610900;54;20419;-75
2024/01/06 20:54:26;;;;;;;29.53;16.90;;;;;;;;;;2612445;54;20410;-75
2024/01/06 20:59:56;;;;;;;30.93;15.83;;;;;;;;;;2611874;46;20447;-74
2024/01/06 21:05:27;;;;;;;31.20;16.20;;;;;;;;;;2611656;54;20363;-75
2024/01/06 21:10:58;;;;;;;24.83;14.70;;;;;;;;;;2614329;54;20458;-75
2024/01/06 21:16:28;;;;;;;27.07;13.90;;;;;;;;;;2614902;54;20386;-75
2024/01/06 21:21:58;;;;;;;25.23;15.50;;;;;;;;;;2613832;54;20405;-74
2024/01/06 21:27:27;;;;;;;35.50;17.17;;;;;;;;;;2613426;54;20391;-76
2024/01/06 21:33:01;;;;;;;21.27;12.93;;;;;;;;;;2612244;54;20375;-79
2024/01/06 21:38:31;;;;;;;29.27;16.40;;;;;;;;;;2611512;54;20383;-76
2024/01/06 21:44:01;;;;;;;25.03;14.03;;;;;;;;;;2611858;54;20363;-75
2024/01/06 21:49:30;;;;;;;23.63;14.70;;;;;;;;;;2611432;54;20390;-75
2024/01/06 21:55:00;;;;;;;24.57;13.07;;;;;;;;;;2612174;54;20986;-75
2024/01/06 22:00:30;;;;;;;23.20;13.40;;;;;;;;;;2611484;54;20929;-77
2024/01/06 22:06:00;;;;;;;28.87;14.83;;;;;;;;;;2612405;54;20391;-76
2024/01/06 22:11:29;;;;;;;24.13;13.10;;;;;;;;;;2611226;54;20414;-78
2024/01/06 22:17:00;;;;;;;24.50;12.13;;;;;;;;;;2613992;54;20427;-76
2024/01/06 22:22:29;;;;;;;20.37;11.97;;;;;;;;;;2613640;54;20901;-75
2024/01/06 22:27:59;;;;;;;20.77;12.90;;;;;;;;;;2612819;54;20355;-77
2024/01/06 22:33:29;;;;;;;20.23;11.53;;;;;;;;;;2615154;54;20406;-77
2024/01/06 22:38:59;;;;;;;21.93;13.10;;;;;;;;;;2614599;54;20379;-78
2024/01/06 22:44:28;;;;;;;20.20;13.07;;;;;;;;;;2612483;54;20426;-77
2024/01/06 22:49:58;;;;;;;18.03;11.20;;;;;;;;;;2615077;39;20803;-76
2024/01/06 22:59:03;;;;;;;19.90;12.63;;;;;;;;;;2612480;54;20407;-77
2024/01/06 23:04:32;;;;;;;17.77;11.90;;;;;;;;;;2614515;54;20474;-76
2024/01/06 23:10:02;;;;;;;21.90;13.20;;;;;;;;;;2614943;54;20432;-77
2024/01/06 23:15:32;;;;;;;18.47;12.70;;;;;;;;;;2610978;54;20920;-78
2024/01/06 23:21:04;;;;;;;22.50;13.17;;;;;;;;;;2611731;54;20422;-76
2024/01/06 23:26:33;;;;;;;28.83;16.80;;;;;;;;;;2610979;54;22479;-74
2024/01/06 23:32:03;;;;;;;41.87;23.10;;;;;;;;;;2612173;54;20371;-75
2024/01/06 23:37:33;;;;;;;40.07;22.07;;;;;;;;;;2611373;54;20366;-75
2024/01/06 23:43:03;;;;;;;31.13;19.20;;;;;;;;;;2611213;54;20387;-76
2024/01/06 23:45:49;;;;;;;25.67;17.87;;;;;;;;;;2611116;54;20423;-75
2024/01/06 23:48:15;;;;;;;26.60;16.80;;;;;;;;;;2613024;47;20524;-74
2024/01/06 23:53:44;;;;;;;25.47;16.20;;;;;;;;;;2611171;54;20512;-75
2024/01/06 23:59:14;;;;;;;28.03;16.60;;;;;;;;;;2613667;54;20367;-74
